Time;durP1;ratioP1;P1;durP2;ratioP2;P2;SDS_P1;SDS_P2;PMS_P1;PMS_P2;Temp;Humidity;BMP_temperature;BMP_pressure;BME280_temperature;BME280_humidity;BME280_pressure;Samples;Min_cycle;Max_cycle;Signal;HPM_P1;HPM_P2
2023/10/26 01:15:31;;;;;;;7.20;6.60;;;14.10;35.10;;;;;;6155658;23;20423;-76
2023/10/26 01:17:57;;;;;;;7.10;6.80;;;14.00;34.20;;;;;;6156649;23;20373;-77
2023/10/26 01:20:22;;;;;;;7.03;6.70;;;14.00;33.00;;;;;;6170221;23;20165;-77
2023/10/26 01:22:48;;;;;;;6.83;6.63;;;14.00;33.40;;;;;;6188015;23;20181;-77
2023/10/26 01:25:13;;;;;;;7.43;7.17;;;14.00;34.00;;;;;;6188222;23;20594;-77
2023/10/26 01:27:39;;;;;;;7.50;7.20;;;14.00;33.80;;;;;;6187759;23;20152;-77
2023/10/26 01:30:05;;;;;;;7.37;7.07;;;14.00;33.60;;;;;;6187886;23;20164;-76
2023/10/26 01:32:31;;;;;;;7.70;7.20;;;13.90;32.90;;;;;;6187908;23;20540;-77
2023/10/26 01:34:56;;;;;;;8.40;7.90;;;14.00;33.40;;;;;;6188309;23;20462;-77
2023/10/26 01:37:22;;;;;;;7.60;7.20;;;13.90;32.80;;;;;;6187911;23;20149;-77
2023/10/26 01:39:48;;;;;;;7.30;7.03;;;14.00;32.90;;;;;;6161955;23;20204;-77
2023/10/26 01:42:13;;;;;;;6.83;6.63;;;14.00;32.20;;;;;;6187844;23;20251;-77
2023/10/26 01:44:39;;;;;;;7.53;7.23;;;13.80;31.60;;;;;;6187966;23;20184;-77
2023/10/26 01:47:06;;;;;;;7.60;7.20;;;13.70;32.00;;;;;;6162050;23;20153;-77
2023/10/26 01:49:31;;;;;;;7.90;7.70;;;13.60;33.20;;;;;;6187778;23;20199;-77
2023/10/26 01:51:57;;;;;;;7.57;7.27;;;13.60;33.50;;;;;;6189155;23;20909;-77
2023/10/26 01:54:22;;;;;;;7.47;7.20;;;13.70;33.80;;;;;;6188329;23;20141;-77
2023/10/26 01:56:48;;;;;;;7.37;6.97;;;13.70;33.70;;;;;;6188843;23;20149;-77
2023/10/26 01:59:14;;;;;;;7.30;7.00;;;13.80;33.40;;;;;;6189050;23;20155;-77
2023/10/26 02:01:39;;;;;;;7.67;7.37;;;13.80;33.30;;;;;;6167595;23;20204;-77
2023/10/26 02:04:05;;;;;;;7.40;7.20;;;13.80;33.50;;;;;;6208949;23;20169;-77
2023/10/26 02:06:30;;;;;;;7.93;7.47;;;13.80;33.10;;;;;;6210831;23;20175;-77
2023/10/26 02:08:56;;;;;;;8.07;7.67;;;13.90;33.10;;;;;;6211532;23;20159;-77
2023/10/26 02:11:22;;;;;;;8.13;7.87;;;13.90;33.00;;;;;;6212075;23;20192;-77
2023/10/26 02:13:47;;;;;;;7.90;7.70;;;13.90;33.00;;;;;;6211618;23;20173;-77
2023/10/26 02:16:13;;;;;;;8.00;7.67;;;13.90;33.10;;;;;;6199880;23;20613;-77
2023/10/26 02:18:43;;;;;;;8.17;7.67;;;13.90;32.80;;;;;;6190103;23;20582;-77
2023/10/26 02:21:08;;;;;;;8.00;7.80;;;13.90;32.50;;;;;;6164739;23;20947;-77
2023/10/26 02:23:34;;;;;;;8.00;7.80;;;13.90;32.40;;;;;;6192206;23;20419;-77
2023/10/26 02:26:01;;;;;;;7.80;7.50;;;13.80;32.20;;;;;;6192108;23;20232;-77
2023/10/26 02:28:26;;;;;;;7.27;6.97;;;13.70;32.10;;;;;;6162544;23;20160;-77
2023/10/26 02:30:52;;;;;;;7.43;7.13;;;13.60;32.90;;;;;;6189028;23;20772;-77
2023/10/26 02:33:18;;;;;;;7.07;6.87;;;13.60;33.10;;;;;;6162559;23;20175;-77
2023/10/26 02:35:44;;;;;;;7.30;7.00;;;13.50;33.20;;;;;;6189143;23;20471;-77
2023/10/26 02:38:10;;;;;;;8.27;8.00;;;13.30;33.20;;;;;;6187864;23;20155;-77
2023/10/26 02:40:36;;;;;;;7.80;7.50;;;13.20;34.10;;;;;;6162166;23;20407;-77
2023/10/26 02:43:03;;;;;;;8.53;8.03;;;13.00;34.10;;;;;;6192268;23;20172;-77
2023/10/26 02:45:30;;;;;;;8.00;7.60;;;12.90;35.00;;;;;;6191130;23;20377;-77
2023/10/26 02:47:56;;;;;;;8.40;8.10;;;12.80;35.30;;;;;;6191342;23;20437;-77
2023/10/26 02:50:22;;;;;;;8.57;8.17;;;12.70;36.10;;;;;;6190896;23;20396;-77
2023/10/26 02:52:47;;;;;;;7.90;7.70;;;12.70;36.30;;;;;;6190542;23;20388;-77
2023/10/26 02:55:13;;;;;;;7.53;7.23;;;12.80;36.80;;;;;;6190224;23;20149;-77
2023/10/26 02:57:39;;;;;;;8.07;7.67;;;12.80;36.40;;;;;;6188031;23;20152;-77
2023/10/26 03:00:05;;;;;;;8.00;7.67;;;13.00;35.80;;;;;;6188248;23;20172;-77
2023/10/26 03:02:31;;;;;;;7.37;7.07;;;12.90;35.10;;;;;;6161606;23;20184;-77
2023/10/26 03:04:58;;;;;;;8.40;8.10;;;12.80;35.60;;;;;;6187995;23;20377;-77
2023/10/26 03:07:24;;;;;;;7.70;7.40;;;12.70;36.00;;;;;;6187993;23;20187;-77
2023/10/26 03:09:50;;;;;;;8.17;7.77;;;12.80;36.10;;;;;;6188761;23;20392;-76
2023/10/26 03:12:17;;;;;;;7.90;7.60;;;12.80;35.50;;;;;;6187665;23;20391;-77
2023/10/26 03:14:43;;;;;;;7.93;7.63;;;12.80;35.10;;;;;;6156628;23;20420;-77
2023/10/26 03:17:09;;;;;;;7.83;7.60;;;12.60;35.70;;;;;;6156991;23;20385;-77
2023/10/26 03:19:35;;;;;;;8.17;7.90;;;12.50;36.30;;;;;;6157789;23;20149;-77
2023/10/26 03:22:00;;;;;;;8.27;7.97;;;12.30;37.10;;;;;;6157850;23;20416;-77
2023/10/26 03:24:26;;;;;;;8.50;8.20;;;12.30;37.40;;;;;;6154647;23;20149;-77
2023/10/26 03:26:52;;;;;;;8.23;7.93;;;12.20;37.70;;;;;;6157206;23;20146;-77
2023/10/26 03:29:17;;;;;;;8.07;7.77;;;12.20;37.70;;;;;;6179632;23;20238;-77
2023/10/26 03:31:44;;;;;;;7.60;7.20;;;12.20;37.40;;;;;;6156801;23;20416;-77
2023/10/26 03:34:09;;;;;;;7.70;7.40;;;12.30;37.10;;;;;;6156997;23;20153;-78
2023/10/26 03:36:35;;;;;;;7.23;7.03;;;12.30;37.10;;;;;;6156276;23;20412;-77
2023/10/26 03:39:00;;;;;;;8.07;7.73;;;12.30;37.00;;;;;;6156830;23;20164;-77
2023/10/26 03:41:26;;;;;;;8.37;7.93;;;12.20;37.30;;;;;;6155375;23;20173;-77
2023/10/26 03:43:51;;;;;;;7.90;7.50;;;12.30;38.20;;;;;;6156851;23;20188;-77
2023/10/26 03:46:17;;;;;;;7.77;7.47;;;12.30;37.50;;;;;;6180515;23;20154;-76
2023/10/26 03:48:43;;;;;;;7.87;7.57;;;12.30;37.80;;;;;;6156579;23;20158;-77
2023/10/26 03:51:08;;;;;;;8.43;7.97;;;12.30;38.10;;;;;;6156827;23;20506;-77
2023/10/26 03:53:34;;;;;;;8.07;7.77;;;12.40;37.60;;;;;;6156884;23;20177;-77
2023/10/26 03:56:01;;;;;;;7.93;7.63;;;12.50;37.70;;;;;;6157773;23;20156;-77
2023/10/26 03:58:27;;;;;;;7.93;7.63;;;12.60;37.10;;;;;;6157014;23;20153;-76
2023/10/26 04:00:52;;;;;;;8.17;7.83;;;12.70;36.50;;;;;;6156202;23;20397;-77
2023/10/26 04:03:18;;;;;;;7.90;7.60;;;12.90;35.80;;;;;;6156533;23;20215;-77
2023/10/26 04:05:43;;;;;;;7.73;7.53;;;13.00;35.00;;;;;;6157050;23;20156;-77
2023/10/26 04:08:09;;;;;;;8.63;8.23;;;13.10;34.20;;;;;;6156245;23;20469;-77
2023/10/26 07:49:08;;;;;;;8.37;8.07;;;13.00;40.60;;;;;;6161598;23;20448;-74
2023/10/26 07:51:34;;;;;;;7.57;7.27;;;13.00;40.70;;;;;;6183033;23;20396;-74
2023/10/26 07:53:59;;;;;;;8.50;8.00;;;13.00;41.10;;;;;;6182166;23;20153;-77
2023/10/26 07:56:25;;;;;;;7.90;7.50;;;13.00;40.80;;;;;;6156556;23;20232;-76
2023/10/26 07:58:50;;;;;;;7.93;7.53;;;13.10;41.20;;;;;;6156054;23;20159;-77
2023/10/26 08:01:16;;;;;;;8.00;7.20;;;13.20;41.60;;;;;;6182980;23;20169;-76
2023/10/26 08:03:41;;;;;;;6.73;6.43;;;13.30;41.50;;;;;;6156848;23;20188;-77
2023/10/26 08:06:09;;;;;;;7.67;7.27;;;13.50;41.10;;;;;;6158241;23;20164;-77
2023/10/26 08:08:35;;;;;;;8.00;7.70;;;13.60;39.40;;;;;;6186358;23;20486;-76
2023/10/26 08:11:14;;;;;;;8.10;7.80;;;13.60;38.90;;;;;;6157244;23;20956;-77
2023/10/26 08:13:40;;;;;;;8.10;7.80;;;13.60;39.00;;;;;;6182978;23;20857;-77
2023/10/26 08:16:06;;;;;;;8.87;8.30;;;13.50;39.20;;;;;;6183953;23;20381;-77
2023/10/26 08:18:32;;;;;;;7.87;7.47;;;13.40;39.90;;;;;;6184407;23;20715;-78
2023/10/26 08:20:58;;;;;;;8.60;8.20;;;13.40;40.50;;;;;;6157319;23;20408;-77
2023/10/26 08:23:24;;;;;;;7.83;7.53;;;13.30;40.00;;;;;;6184152;23;20416;-77
2023/10/26 08:25:50;;;;;;;8.70;8.30;;;13.40;40.50;;;;;;6184815;23;20144;-77
2023/10/26 08:28:15;;;;;;;7.10;6.80;;;13.40;40.20;;;;;;6184043;23;20153;-78
2023/10/26 08:30:41;;;;;;;7.87;7.57;;;13.40;40.60;;;;;;6187582;23;20396;-77
2023/10/26 08:33:07;;;;;;;7.53;7.33;;;13.50;40.80;;;;;;6184927;23;20152;-78
2023/10/26 08:35:33;;;;;;;7.80;7.20;;;13.60;40.90;;;;;;6183792;23;20381;-77
2023/10/26 08:37:59;;;;;;;6.77;6.57;;;13.70;40.70;;;;;;6185112;23;20384;-78
2023/10/26 08:40:25;;;;;;;6.77;6.47;;;13.80;40.40;;;;;;6184366;23;20720;-77
2023/10/26 08:42:50;;;;;;;6.90;6.70;;;13.90;39.80;;;;;;6158133;23;20529;-77
2023/10/26 08:45:24;;;;;;;7.10;6.80;;;14.00;39.30;;;;;;6185440;23;20149;-77
2023/10/26 08:47:50;;;;;;;7.10;6.80;;;14.10;38.60;;;;;;6152697;23;20168;-78
